ADDS METAR Data INFO
IDs: Format: Raw Decoded Include TAF

Data at: 2018 UTC 18 Jul 2018

KHWO 181953Z 20011KT 5SM VCTS HZ FEW060 BKN070 BKN100 27/23 A3004 RMK AO2 LTG DSNT SW RAE51 SLP171 P0030 T02670228
KHWO 181907Z 15009KT 5SM VCTS -RA SCT038 BKN055 OVC100 27/22 A3005 RMK AO2 P0017 T02670222
KHWO 181901Z 14009G21KT 1 1/2SM VCTS +RA SCT036 BKN055 OVC085 27/22 A3005 RMK AO2 P0017 T02670222
KHWO 181853Z 16017G26KT 2SM +RA SCT043 BKN055 OVC085 27/22 A3003 RMK AO2 PK WND 14026/1850 VIS 1 1/2V4 SLP169 P0014 T02670222
KHWO 181753Z 16010G19KT 10SM -RA BKN048 BKN055 BKN080 31/24 A3005 RMK AO2 RAB50 SLP174 P0000 60000 T03110239 10356 20289 58013
KHWO 181653Z 24009KT 10SM SCT043 33/22 A3006 RMK AO2 SLP178 T03330222
KHWO 181553Z 25010KT 10SM SCT041 SCT055 BKN095 34/24 A3008 RMK AO2 SLP184 T03390239
KHWO 181453Z 19009KT 10SM CLR 33/23 A3008 RMK AO2 SLP187 T03330228 50003
KHWO 181353Z 23007KT 10SM FEW037 31/24 A3009 RMK AO2 SLP188 T03110239
KHWO 181253Z 20005KT 10SM CLR 31/24 A3009 RMK AO2 SLP188 T03060244
KHWO 181153Z 00000KT 10SM CLR 29/24 A3008 RMK AO2 SLP184 T02890239 10294 20272 53003
KHWO 181053Z 13003KT 10SM CLR 28/23 A3008 RMK AO2 SLP184 T02780233
KHWO 180953Z AUTO 00000KT 10SM CLR 28/24 A3007 RMK AO2 SLP181 T02780244
KHWO 180853Z AUTO 00000KT 10SM FEW035 28/24 A3007 RMK AO2 SLP182 T02780244 56007
KHWO 180753Z AUTO 00000KT 10SM CLR 28/24 A3007 RMK AO2 SLP183 T02830239
KHWO 180653Z AUTO 00000KT 10SM CLR 28/24 A3008 RMK AO2 SLP186 T02830239
KHWO 180553Z AUTO 17003KT 10SM CLR 29/24 A3009 RMK AO2 SLP189 60000 T02890239 10311 20289 58006
KHWO 180453Z AUTO 19003KT 10SM CLR 29/24 A3010 RMK AO2 SLP192 T02890239 403500267
KHWO 180353Z AUTO 00000KT 10SM CLR 29/24 A3011 RMK AO2 SLP196 T02890244
KHWO 180253Z AUTO 20003KT 10SM SCT075 29/24 A3011 RMK AO2 SLP195 60000 T02940244 53007
KHWO 180153Z AUTO 22004KT 10SM FEW085 29/24 A3010 RMK AO2 SLP194 T02940244
KHWO 180053Z AUTO 23005KT 10SM CLR 29/24 A3009 RMK AO2 RAB10E24 SLP189 P0000 T02940239
KHWO 172353Z 25004KT 10SM FEW036 FEW050 SCT110 31/24 A3009 RMK AO2 SLP188 T03110239 10350 20306 53007
KHWO 172253Z 21007KT 10SM SCT038 SCT100 31/23 A3007 RMK AO2 SLP183 T03110233
KHWO 172153Z 17006KT 10SM SCT050 32/23 A3006 RMK AO2 LTG DSNT NW TSB2055E11 SLP180 T03220228
KHWO 172139Z 16006KT 10SM SCT050 32/23 A3007 RMK AO2 LTG DSNT NW TSB2055E11 T03220228
KHWO 172117Z 18007KT 10SM VCTS CLR 32/23 A3007 RMK AO2 LTG DSNT NW-NE TSB2055E11 T03220233
KHWO 172101Z 19008KT 10SM TS CLR 32/23 A3007 RMK AO2 LTG DSNT NW-NE TSB2055 T03220233
KHWO 172053Z 19009KT 10SM VCTS CLR 33/23 A3007 RMK AO2 LTG DSNT N AND NW SLP181 T03280233 55009
KHWO 172038Z 18011KT 10SM VCTS SCT037 SCT047 33/23 A3006 RMK AO2 LTG DSNT N T03280233
KHWO 171953Z 15014KT 10SM FEW044 FEW055 34/24 A3006 RMK AO2 SLP178 T03390239
KHWO 171853Z 10SM FEW042 34/23 A3008 RMK AO2 LTG DSNT SW SLP187 T03390233
KHWO 171753Z 17012G16KT 10SM FEW038 SCT060 SCT085 35/23 A3009 RMK AO2 SLP191 T03500233 10350 20289 58013
KHWO 171653Z 16008KT 10SM SCT037 33/23 A3011 RMK AO2 SLP197 T03330233
KHWO 171553Z 16007KT 10SM BKN043 BKN050 33/23 A3013 RMK AO2 SLP202 T03280233
KHWO 171453Z 14005KT 10SM CLR 33/23 A3013 RMK AO2 SLP203 T03280233 50006
KHWO 171353Z 00000KT 10SM SCT030 32/23 A3014 RMK AO2 SLP206 T03170233
KHWO 171253Z VRB03KT 10SM CLR 31/24 A3014 RMK AO2 SLP208 T03060244
KHWO 171153Z 00000KT 10SM CLR 29/24 A3012 RMK AO2 SLP197 T02890244 10289 20267 51006
KHWO 171053Z 00000KT 10SM CLR 27/24 A3011 RMK AO2 SLP197 T02720244
KHWO 170953Z AUTO 00000KT 10SM CLR 27/24 A3010 RMK AO2 SLP192 T02720244
KHWO 170853Z AUTO 06003KT 10SM CLR 27/24 A3010 RMK AO2 SLP192 T02720244 55003